createdAt,value
2022-10-25T06:15:34.114Z,1006.01
2022-10-25T06:25:34.107Z,1006.16
2022-10-25T06:35:34.204Z,1006.22
2022-10-25T06:45:34.153Z,1006.22
2022-10-25T06:55:34.263Z,1006.29
2022-10-25T07:05:34.159Z,1006.57
2022-10-25T07:15:36.377Z,1006.60
2022-10-25T07:25:34.189Z,1006.78
2022-10-25T07:35:41.939Z,1006.72
2022-10-25T07:45:34.226Z,1006.87
2022-10-25T07:55:34.147Z,1007.07
2022-10-25T08:05:34.207Z,1007.10
2022-10-25T08:15:34.262Z,1007.18
2022-10-25T08:25:34.320Z,1007.29
2022-10-25T08:35:34.324Z,1007.36
2022-10-25T08:45:34.247Z,1007.44
2022-10-25T08:55:34.294Z,1007.61
2022-10-25T09:05:34.286Z,1007.67
2022-10-25T09:15:36.784Z,1007.77
2022-10-25T09:25:34.298Z,1007.88
2022-10-25T09:35:34.224Z,1007.91
2022-10-25T09:45:37.334Z,1007.94
2022-10-25T09:55:34.365Z,1007.99
2022-10-25T10:05:34.165Z,1008.01
2022-10-25T10:15:34.386Z,1008.22
2022-10-25T10:25:34.208Z,1008.17
2022-10-25T10:35:34.318Z,1008.13
2022-10-25T10:45:34.269Z,1008.21
2022-10-25T10:55:34.257Z,1008.29
2022-10-25T11:05:34.345Z,1008.47
2022-10-25T11:15:34.289Z,1008.37
2022-10-25T11:25:34.275Z,1008.39
2022-10-25T11:35:34.336Z,1008.45
2022-10-25T11:45:34.283Z,1008.64
2022-10-25T11:55:34.207Z,1008.68
2022-10-25T12:05:34.313Z,1008.76
2022-10-25T12:15:34.401Z,1008.77
2022-10-25T12:25:34.549Z,1008.81
2022-10-25T12:35:34.449Z,1008.85
2022-10-25T12:45:34.448Z,1008.88
2022-10-25T12:55:34.498Z,1008.77
2022-10-25T13:05:34.337Z,1008.63
2022-10-25T13:15:34.501Z,1008.71
2022-10-25T13:25:34.368Z,1008.81
2022-10-25T13:35:34.478Z,1008.90
2022-10-25T13:45:34.451Z,1008.83
2022-10-25T13:55:34.372Z,1008.95
2022-10-25T14:05:34.463Z,1009.00
2022-10-25T14:15:34.537Z,1009.00
2022-10-25T14:25:34.460Z,1009.04
2022-10-25T14:35:34.464Z,1008.96
2022-10-25T14:45:34.389Z,1008.98
2022-10-25T14:55:34.561Z,1008.90
2022-10-25T15:05:34.550Z,1009.04
2022-10-25T15:15:34.679Z,1008.98
2022-10-25T15:25:34.588Z,1009.09
2022-10-25T15:35:34.529Z,1009.01
2022-10-25T15:45:34.614Z,1009.10
2022-10-25T15:55:34.607Z,1009.26
2022-10-25T16:05:34.578Z,1009.32
2022-10-25T16:15:34.639Z,1009.32
2022-10-25T16:25:34.537Z,1009.47
2022-10-25T16:35:34.650Z,1009.44
2022-10-25T16:45:34.597Z,1009.66
2022-10-25T16:55:34.686Z,1009.59
2022-10-25T17:05:34.638Z,1009.65
2022-10-25T17:15:34.571Z,1009.69
2022-10-25T17:25:34.639Z,1009.66
2022-10-25T17:35:34.633Z,1009.58
2022-10-25T17:45:34.743Z,1009.63
2022-10-25T17:55:36.967Z,1009.76
2022-10-25T18:05:34.613Z,1009.65
2022-10-25T18:15:34.656Z,1009.74
2022-10-25T18:25:34.668Z,1009.78
2022-10-25T18:35:34.641Z,1009.84
2022-10-25T18:45:34.749Z,1009.82
2022-10-25T18:55:34.936Z,1009.79
2022-10-25T19:05:35.131Z,1009.78
2022-10-25T19:15:35.166Z,1009.81
